Time;durP1;ratioP1;P1;durP2;ratioP2;P2;SDS_P1;SDS_P2;PMS_P1;PMS_P2;Temp;Humidity;BMP_temperature;BMP_pressure;BME280_temperature;BME280_humidity;BME280_pressure;Samples;Min_cycle;Max_cycle;Signal;HPM_P1;HPM_P2
2022/11/21 00:00:21;;;;;;;25.23;16.75;;;3.80;73.80;;;;;;5078400;28;20063;-81
2022/11/21 00:02:47;;;;;;;27.30;18.02;;;3.80;73.70;;;;;;5078367;28;20059;-82
2022/11/21 00:05:13;;;;;;;28.65;18.92;;;3.80;74.00;;;;;;5078428;28;20040;-81
2022/11/21 00:07:39;;;;;;;23.42;16.17;;;3.80;73.40;;;;;;5078482;28;20047;-81
2022/11/21 00:10:05;;;;;;;23.65;16.75;;;3.80;73.20;;;;;;5078497;28;20032;-81
2022/11/21 00:12:31;;;;;;;27.20;18.08;;;3.80;73.30;;;;;;5078613;28;20474;-81
2022/11/21 00:14:57;;;;;;;26.58;17.60;;;3.80;73.20;;;;;;5078002;28;20048;-80
2022/11/21 00:17:22;;;;;;;24.42;17.65;;;3.80;73.20;;;;;;5061550;28;20152;-81
2022/11/21 00:19:48;;;;;;;24.60;16.38;;;3.80;73.10;;;;;;5077141;28;20064;-81
2022/11/21 00:22:14;;;;;;;23.23;16.05;;;3.80;73.00;;;;;;5061439;28;20032;-81
2022/11/21 00:24:39;;;;;;;27.70;17.20;;;3.70;72.90;;;;;;5057929;28;20490;-81
2022/11/21 00:27:05;;;;;;;24.30;17.38;;;3.70;72.80;;;;;;5073820;28;20089;-81
2022/11/21 00:29:30;;;;;;;24.67;16.45;;;3.70;72.60;;;;;;5078133;28;20490;-81
2022/11/21 00:31:56;;;;;;;23.40;15.80;;;3.70;72.40;;;;;;5077856;28;20044;-81
2022/11/21 00:34:22;;;;;;;26.60;16.95;;;3.70;72.70;;;;;;5077855;28;20513;-81
2022/11/21 00:36:47;;;;;;;26.42;16.42;;;3.70;72.70;;;;;;5061134;28;20040;-81
2022/11/21 00:39:13;;;;;;;25.35;16.90;;;3.70;72.70;;;;;;5061125;28;20044;-81
2022/11/21 00:41:39;;;;;;;22.77;15.80;;;3.70;72.70;;;;;;5077710;28;20044;-81
2022/11/21 00:44:05;;;;;;;21.90;14.82;;;3.60;72.80;;;;;;5077286;28;20066;-81
2022/11/21 00:46:30;;;;;;;23.83;16.27;;;3.70;72.90;;;;;;5077616;28;20047;-81
2022/11/21 00:48:56;;;;;;;22.85;15.68;;;3.70;72.90;;;;;;5061017;28;20055;-81
2022/11/21 00:51:22;;;;;;;24.40;16.90;;;3.70;72.90;;;;;;5077600;28;20040;-81
2022/11/21 00:53:47;;;;;;;21.10;14.50;;;3.60;72.80;;;;;;5094319;28;20043;-82
2022/11/21 00:56:13;;;;;;;21.30;14.82;;;3.70;72.90;;;;;;5077713;28;20055;-81
2022/11/21 00:58:39;;;;;;;24.45;16.90;;;3.70;72.90;;;;;;5060862;28;20039;-81
2022/11/21 01:01:08;;;;;;;23.17;15.52;;;3.70;72.90;;;;;;5094127;28;20058;-82
2022/11/21 01:03:34;;;;;;;23.20;16.20;;;3.70;72.90;;;;;;5077168;28;20461;-81
2022/11/21 01:06:08;;;;;;;25.48;16.98;;;3.90;73.10;;;;;;5093911;28;20044;-80
2022/11/21 01:08:35;;;;;;;25.40;16.47;;;3.70;73.00;;;;;;5077322;28;20079;-81
2022/11/21 01:11:06;;;;;;;24.17;15.77;;;3.70;73.00;;;;;;5077112;28;20040;-81
2022/11/21 01:13:33;;;;;;;23.40;16.17;;;3.90;73.10;;;;;;5077005;28;20028;-81
2022/11/21 01:16:14;;;;;;;21.13;14.75;;;3.80;73.00;;;;;;5093937;28;20072;-81
2022/11/21 01:18:40;;;;;;;23.20;15.30;;;3.80;73.00;;;;;;5076965;28;20086;-81
2022/11/21 01:21:14;;;;;;;21.90;15.38;;;3.70;72.90;;;;;;5077195;28;20419;-81
2022/11/21 01:23:40;;;;;;;24.40;16.45;;;3.80;72.90;;;;;;5093678;28;20507;-81
2022/11/21 01:26:09;;;;;;;24.13;15.32;;;3.80;72.80;;;;;;5077096;28;20055;-81
2022/11/21 01:28:35;;;;;;;23.70;16.30;;;3.80;72.90;;;;;;5093796;28;20134;-81
2022/11/21 01:31:09;;;;;;;18.80;13.95;;;3.90;72.90;;;;;;5093564;28;20563;-81
2022/11/21 01:33:35;;;;;;;20.40;13.95;;;3.90;72.90;;;;;;5093661;28;20035;-81
2022/11/21 01:36:09;;;;;;;22.85;15.43;;;3.90;72.90;;;;;;5076593;28;20077;-81
2022/11/21 01:38:34;;;;;;;23.58;15.63;;;3.90;72.90;;;;;;5093592;28;20078;-81
2022/11/21 01:41:00;;;;;;;22.75;14.88;;;3.90;72.90;;;;;;5076405;28;20044;-81
2022/11/21 01:43:26;;;;;;;23.83;15.95;;;3.90;72.80;;;;;;5076502;28;20060;-81
2022/11/21 01:45:57;;;;;;;21.40;15.23;;;4.00;72.80;;;;;;5059775;28;20043;-81
2022/11/21 01:48:51;;;;;;;22.17;15.15;;;4.00;72.80;;;;;;5076025;28;20083;-81
2022/11/21 01:51:30;;;;;;;17.70;11.68;;;4.00;72.80;;;;;;5092745;28;20656;-81
2022/11/21 01:54:12;;;;;;;20.08;13.70;;;4.00;72.70;;;;;;5076135;28;20036;-81
2022/11/21 01:56:58;;;;;;;22.05;14.85;;;4.00;72.70;;;;;;5092730;28;20114;-81
2022/11/21 01:59:29;;;;;;;23.10;14.90;;;4.00;72.60;;;;;;5092514;28;20044;-80
2022/11/21 02:01:55;;;;;;;23.45;15.48;;;4.00;72.70;;;;;;5093006;28;20040;-82
2022/11/21 02:04:27;;;;;;;18.35;13.73;;;4.00;72.70;;;;;;5075672;28;20048;-81
2022/11/21 02:06:52;;;;;;;19.10;14.00;;;4.00;72.60;;;;;;5092688;28;20043;-81
2022/11/21 02:09:19;;;;;;;21.17;15.63;;;4.00;72.60;;;;;;5075934;28;20406;-80
2022/11/21 02:11:53;;;;;;;21.25;15.00;;;4.10;72.70;;;;;;5075769;28;20047;-81
2022/11/21 02:14:18;;;;;;;22.63;15.07;;;4.10;72.60;;;;;;5109640;28;20036;-81
2022/11/21 02:16:45;;;;;;;19.90;14.45;;;4.10;72.60;;;;;;5059232;28;20043;-81
2022/11/21 02:19:22;;;;;;;20.75;14.20;;;4.10;72.60;;;;;;5059651;28;20032;-81
2022/11/21 02:22:17;;;;;;;21.65;15.32;;;4.10;72.50;;;;;;5075900;28;20043;-81
2022/11/21 02:24:46;;;;;;;23.40;15.55;;;4.10;72.50;;;;;;5092051;28;20046;-81
2022/11/21 02:27:12;;;;;;;21.85;15.40;;;4.10;72.50;;;;;;5075701;28;20040;-81
2022/11/21 02:29:39;;;;;;;22.50;15.32;;;4.10;72.40;;;;;;5075702;28;20096;-81
2022/11/21 02:32:05;;;;;;;21.55;14.70;;;4.20;72.40;;;;;;5074894;28;20072;-72
2022/11/21 02:34:32;;;;;;;20.83;14.90;;;4.10;72.30;;;;;;5092059;28;20072;-72
2022/11/21 02:36:58;;;;;;;23.00;15.50;;;4.10;72.30;;;;;;5074599;28;20044;-72
2022/11/21 02:39:44;;;;;;;23.10;16.17;;;4.10;72.30;;;;;;5058605;28;20063;-73
2022/11/21 02:42:32;;;;;;;20.58;14.68;;;4.20;72.30;;;;;;5074240;28;20399;-72
2022/11/21 02:45:17;;;;;;;18.70;13.65;;;4.20;72.30;;;;;;5074621;28;20036;-72
2022/11/21 02:47:44;;;;;;;20.40;14.32;;;4.10;72.20;;;;;;5091853;28;20040;-72
2022/11/21 02:50:21;;;;;;;18.58;13.75;;;4.20;72.30;;;;;;5074342;28;20040;-72
2022/11/21 02:52:47;;;;;;;21.33;14.32;;;4.10;72.60;;;;;;5091524;28;20400;-72
2022/11/21 02:55:14;;;;;;;20.90;15.02;;;4.10;72.10;;;;;;5057630;28;20116;-72
2022/11/21 02:57:40;;;;;;;19.83;14.10;;;4.20;72.10;;;;;;5091410;28;20043;-72
2022/11/21 03:00:07;;;;;;;21.67;14.90;;;4.20;72.10;;;;;;5075159;28;20104;-72
2022/11/21 03:02:33;;;;;;;22.75;15.63;;;4.20;72.00;;;;;;5074344;28;20120;-72
2022/11/21 03:04:59;;;;;;;21.17;14.73;;;4.20;72.00;;;;;;5057961;28;20131;-72
2022/11/21 03:07:25;;;;;;;23.10;15.93;;;4.10;71.90;;;;;;5091115;28;20092;-72
2022/11/21 03:09:51;;;;;;;28.38;16.48;;;4.20;71.90;;;;;;5074329;28;20044;-72
2022/11/21 03:12:16;;;;;;;21.98;16.45;;;4.10;71.80;;;;;;5091312;28;20143;-72
2022/11/21 03:14:42;;;;;;;24.30;17.83;;;4.10;71.70;;;;;;5091083;28;20040;-72
2022/11/21 03:17:08;;;;;;;23.92;15.32;;;4.10;71.30;;;;;;5058021;28;20047;-72
2022/11/21 03:19:33;;;;;;;20.15;14.68;;;4.00;71.10;;;;;;5091144;28;20036;-72
2022/11/21 03:21:59;;;;;;;20.52;14.98;;;4.00;71.10;;;;;;5073963;28;20048;-73
2022/11/21 03:24:24;;;;;;;22.13;15.70;;;4.00;71.60;;;;;;5053890;28;20040;-72
2022/11/21 03:26:50;;;;;;;19.85;15.05;;;4.00;71.30;;;;;;5071214;28;20193;-73
2022/11/21 03:29:16;;;;;;;23.58;16.00;;;4.20;71.50;;;;;;5077675;28;20566;-72
2022/11/21 03:31:42;;;;;;;18.98;14.00;;;4.00;71.40;;;;;;5072583;28;20040;-72
2022/11/21 03:34:07;;;;;;;21.52;15.23;;;4.00;71.50;;;;;;5074335;28;20036;-72
2022/11/21 03:36:33;;;;;;;19.30;13.20;;;4.00;71.50;;;;;;5074338;28;20032;-72
2022/11/21 03:38:59;;;;;;;20.63;14.40;;;4.00;71.50;;;;;;5090982;28;20032;-72
2022/11/21 03:41:28;;;;;;;23.23;15.65;;;4.00;71.50;;;;;;5091407;28;20040;-72
2022/11/21 03:44:06;;;;;;;19.85;13.93;;;3.90;71.50;;;;;;5073949;28;20105;-73
2022/11/21 03:46:34;;;;;;;23.02;15.32;;;3.90;71.50;;;;;;5091570;28;20040;-72
2022/11/21 03:49:00;;;;;;;21.30;15.38;;;3.90;71.50;;;;;;5091280;28;20063;-72
2022/11/21 03:51:26;;;;;;;18.50;13.77;;;3.90;71.90;;;;;;5090877;28;20047;-72
2022/11/21 03:53:52;;;;;;;20.20;13.77;;;3.90;71.50;;;;;;5057365;28;20071;-72
2022/11/21 03:56:18;;;;;;;18.90;13.93;;;3.90;71.50;;;;;;5093693;28;20068;-72
2022/11/21 03:58:44;;;;;;;20.50;14.82;;;3.90;71.40;;;;;;5094403;28;20028;-72
2022/11/21 04:01:11;;;;;;;22.02;14.73;;;3.90;71.30;;;;;;5094498;28;20040;-72
2022/11/21 04:03:37;;;;;;;18.70;13.95;;;3.80;71.00;;;;;;5077479;28;20074;-72
2022/11/21 04:06:03;;;;;;;21.25;13.98;;;3.80;70.90;;;;;;5094185;28;20047;-72
2022/11/21 04:08:29;;;;;;;19.83;14.32;;;3.80;71.00;;;;;;5077495;28;20100;-72
2022/11/21 04:10:55;;;;;;;21.17;15.20;;;3.80;71.10;;;;;;5061171;28;20040;-72
2022/11/21 04:13:21;;;;;;;18.83;13.52;;;3.70;70.90;;;;;;5077276;28;20028;-72
2022/11/21 04:15:46;;;;;;;23.23;15.05;;;3.70;70.80;;;;;;5094576;28;20165;-72
2022/11/21 04:18:12;;;;;;;23.30;16.17;;;3.60;70.80;;;;;;5094380;28;20514;-72
2022/11/21 04:20:39;;;;;;;21.35;15.48;;;3.70;70.70;;;;;;5093873;28;20047;-72
2022/11/21 04:23:05;;;;;;;22.15;15.48;;;3.60;70.40;;;;;;5077596;28;20384;-72
2022/11/21 04:25:31;;;;;;;24.58;16.27;;;3.60;70.30;;;;;;5077448;28;20082;-72
2022/11/21 04:27:58;;;;;;;22.58;16.38;;;3.40;70.10;;;;;;5077393;28;20048;-72
2022/11/21 04:30:24;;;;;;;24.88;16.77;;;3.50;70.10;;;;;;5077330;28;20422;-72
2022/11/21 04:32:50;;;;;;;23.52;16.13;;;3.30;70.00;;;;;;5077333;28;20047;-72
2022/11/21 04:35:16;;;;;;;21.85;15.95;;;3.20;70.10;;;;;;5093345;28;20042;-72
2022/11/21 04:37:42;;;;;;;24.83;14.77;;;3.00;70.30;;;;;;5094336;28;20047;-72
2022/11/21 04:40:09;;;;;;;22.67;15.55;;;2.90;70.80;;;;;;5094093;28;20036;-72
2022/11/21 04:42:35;;;;;;;19.70;14.50;;;2.80;71.20;;;;;;5093742;28;20078;-72
2022/11/21 04:45:00;;;;;;;22.00;15.20;;;2.80;71.50;;;;;;5076773;28;20072;-72
2022/11/21 04:47:26;;;;;;;21.47;14.47;;;2.80;71.80;;;;;;5077224;28;20048;-72
2022/11/21 04:49:52;;;;;;;24.67;16.67;;;2.70;72.00;;;;;;5076537;28;20036;-72
2022/11/21 04:52:17;;;;;;;23.40;16.63;;;2.80;72.10;;;;;;5076819;28;20032;-72
2022/11/21 04:54:43;;;;;;;25.15;16.58;;;2.70;72.40;;;;;;5059965;28;20403;-72
2022/11/21 04:57:09;;;;;;;21.02;14.57;;;2.60;71.80;;;;;;5060223;28;20079;-72
2022/11/21 04:59:34;;;;;;;21.73;15.27;;;2.60;72.00;;;;;;5076288;28;20032;-72
2022/11/21 05:02:02;;;;;;;22.23;14.50;;;2.60;72.20;;;;;;5076836;28;20040;-72
2022/11/21 05:04:28;;;;;;;21.57;14.43;;;2.60;72.50;;;;;;5093116;28;20495;-72
2022/11/21 05:06:53;;;;;;;22.40;15.57;;;2.60;73.00;;;;;;5076179;28;20127;-72
2022/11/21 05:09:19;;;;;;;23.47;14.93;;;2.60;72.70;;;;;;5056575;28;20137;-72
2022/11/21 05:14:29;;;;;;;22.60;15.00;;;2.60;72.80;;;;;;5090185;28;20169;-72
2022/11/21 05:16:54;;;;;;;22.37;15.23;;;2.60;72.90;;;;;;5076278;28;20558;-72
2022/11/21 05:19:20;;;;;;;21.23;14.15;;;2.60;72.80;;;;;;5090504;28;20115;-72
2022/11/21 05:21:46;;;;;;;21.47;14.03;;;2.60;72.70;;;;;;5076422;28;20047;-72
2022/11/21 05:24:11;;;;;;;21.45;14.50;;;2.60;72.70;;;;;;5093166;28;20395;-72
2022/11/21 05:26:37;;;;;;;21.63;15.47;;;2.60;72.80;;;;;;5059655;28;20032;-72
2022/11/21 05:29:03;;;;;;;23.27;15.97;;;2.60;72.80;;;;;;5076182;28;20040;-72
2022/11/21 05:31:29;;;;;;;21.07;14.57;;;2.70;72.80;;;;;;5059107;28;20036;-72
2022/11/21 05:33:55;;;;;;;22.70;14.67;;;2.70;72.80;;;;;;5093066;28;20089;-72
2022/11/21 05:36:20;;;;;;;21.10;14.83;;;2.70;72.70;;;;;;5076039;28;20069;-72
2022/11/21 05:38:46;;;;;;;21.87;14.20;;;2.60;72.60;;;;;;5076034;28;20411;-73
2022/11/21 05:41:12;;;;;;;20.80;13.70;;;2.70;72.60;;;;;;5074565;28;20036;-73
2022/11/21 05:43:46;;;;;;;22.23;14.23;;;2.60;72.60;;;;;;5089575;28;20433;-73
2022/11/21 05:46:15;;;;;;;21.05;14.13;;;2.60;72.60;;;;;;5076679;28;20044;-72
2022/11/21 05:48:40;;;;;;;20.23;13.93;;;2.90;72.70;;;;;;5092478;28;20090;-73
2022/11/21 05:51:07;;;;;;;23.50;15.18;;;2.60;72.50;;;;;;5075673;28;20047;-72
2022/11/21 05:53:33;;;;;;;23.73;14.73;;;2.60;72.50;;;;;;5092659;28;20040;-72
2022/11/21 05:56:05;;;;;;;21.03;14.57;;;2.70;72.50;;;;;;5074311;28;20028;-73
2022/11/21 05:58:32;;;;;;;19.63;13.80;;;2.60;72.50;;;;;;5091475;28;20032;-72
2022/11/21 06:00:58;;;;;;;20.73;13.63;;;2.60;72.40;;;;;;5090661;28;20032;-72
2022/11/21 06:03:29;;;;;;;21.90;15.07;;;2.70;72.40;;;;;;5074509;28;20072;-72
2022/11/21 06:06:12;;;;;;;24.43;16.77;;;2.60;72.30;;;;;;5074829;28;20047;-72
2022/11/21 06:08:39;;;;;;;24.57;17.43;;;2.60;71.70;;;;;;5074214;28;20040;-72
2022/11/21 06:11:06;;;;;;;25.17;17.37;;;2.60;71.30;;;;;;5073700;28;20383;-73
2022/11/21 06:13:32;;;;;;;26.07;16.80;;;2.40;71.00;;;;;;5091724;28;20047;-73
2022/11/21 06:16:02;;;;;;;22.37;14.73;;;2.40;70.90;;;;;;5092429;28;20047;-73
2022/11/21 06:18:34;;;;;;;24.83;15.97;;;2.30;70.70;;;;;;5091393;28;20042;-73
2022/11/21 06:21:06;;;;;;;24.63;17.00;;;2.30;71.10;;;;;;5057822;28;20043;-73
2022/11/21 06:23:32;;;;;;;25.00;16.83;;;2.20;71.30;;;;;;5076059;28;20043;-73
2022/11/21 06:26:00;;;;;;;24.80;16.93;;;2.20;71.50;;;;;;5056891;28;20071;-73
2022/11/21 06:28:30;;;;;;;27.60;17.53;;;2.20;71.60;;;;;;5075506;28;20036;-74
2022/11/21 06:31:03;;;;;;;24.80;16.63;;;2.20;71.70;;;;;;5091783;28;20044;-73
2022/11/21 06:33:29;;;;;;;27.90;17.03;;;2.10;71.60;;;;;;5092033;28;20032;-74
2022/11/21 06:35:54;;;;;;;24.57;16.73;;;2.10;71.60;;;;;;5074983;28;20035;-73
2022/11/21 06:38:20;;;;;;;27.53;17.97;;;2.10;71.60;;;;;;5075069;28;20067;-73
2022/11/21 06:40:46;;;;;;;26.67;17.20;;;2.00;71.50;;;;;;5074664;28;20070;-73
2022/11/21 06:43:12;;;;;;;27.70;18.70;;;2.00;71.60;;;;;;5058357;28;20043;-73
2022/11/21 06:45:37;;;;;;;27.60;18.40;;;2.00;71.50;;;;;;5075111;28;20051;-74
2022/11/21 06:48:03;;;;;;;25.23;16.83;;;2.00;71.60;;;;;;5074797;28;20044;-74
2022/11/21 06:50:32;;;;;;;28.80;19.20;;;2.00;71.50;;;;;;5057935;28;20044;-74
2022/11/21 06:52:58;;;;;;;27.67;16.97;;;2.00;71.60;;;;;;5091888;28;20386;-74
2022/11/21 06:55:26;;;;;;;22.23;16.53;;;1.90;71.50;;;;;;5074955;28;20127;-74
2022/11/21 06:57:52;;;;;;;28.53;18.07;;;1.90;71.60;;;;;;5074844;28;20036;-74
2022/11/21 07:00:19;;;;;;;26.60;16.40;;;1.90;71.60;;;;;;5091411;28;20083;-74
2022/11/21 07:02:45;;;;;;;27.20;16.93;;;1.90;71.70;;;;;;5091487;28;20051;-74
2022/11/21 07:05:11;;;;;;;24.60;16.30;;;1.90;71.80;;;;;;5074830;28;20051;-74
2022/11/21 07:07:37;;;;;;;23.27;15.20;;;1.80;71.90;;;;;;5091364;28;20044;-73
2022/11/21 07:10:03;;;;;;;26.30;16.77;;;1.80;72.00;;;;;;5074658;28;20115;-74
2022/11/21 07:15:13;;;;;;;29.05;18.60;;;1.80;72.70;;;;;;5094162;28;20180;-74
2022/11/21 07:17:39;;;;;;;27.97;18.40;;;1.80;72.30;;;;;;5074510;28;20505;-74
2022/11/21 07:20:05;;;;;;;29.47;18.63;;;1.70;72.40;;;;;;5054261;28;20029;-73
2022/11/21 07:22:31;;;;;;;29.23;19.10;;;1.70;72.60;;;;;;5045781;28;20437;-74
2022/11/21 07:24:56;;;;;;;30.83;18.77;;;1.70;72.70;;;;;;5056865;28;20047;-75
2022/11/21 07:27:22;;;;;;;28.37;17.50;;;1.60;72.90;;;;;;5057850;28;20422;-77
2022/11/21 07:29:48;;;;;;;31.40;19.53;;;1.70;73.00;;;;;;5059755;28;20466;-74
2022/11/21 07:32:14;;;;;;;35.33;21.07;;;1.90;73.30;;;;;;5044851;28;20041;-75
2022/11/21 07:34:39;;;;;;;34.67;20.27;;;1.60;73.30;;;;;;5095496;28;20062;-74
2022/11/21 07:37:05;;;;;;;31.90;19.77;;;1.60;73.40;;;;;;5078630;28;20036;-75
2022/11/21 07:39:31;;;;;;;32.60;19.93;;;1.60;73.60;;;;;;5076444;28;20032;-75
2022/11/21 07:41:56;;;;;;;31.30;17.77;;;1.60;73.70;;;;;;5078342;28;20400;-75
2022/11/21 07:44:22;;;;;;;28.63;17.83;;;1.60;73.80;;;;;;5078319;28;20032;-74
2022/11/21 07:46:48;;;;;;;27.20;18.57;;;1.70;74.10;;;;;;5061876;28;20039;-75
2022/11/21 07:49:13;;;;;;;28.43;17.53;;;1.60;74.10;;;;;;5057668;28;20509;-75
2022/11/21 07:51:39;;;;;;;27.10;17.37;;;1.60;74.20;;;;;;5061400;28;20040;-74
2022/11/21 07:54:05;;;;;;;26.43;17.23;;;1.60;74.40;;;;;;5078032;28;20117;-75
2022/11/21 07:56:30;;;;;;;24.67;16.17;;;1.60;74.50;;;;;;5062001;28;20036;-84
2022/11/21 07:58:56;;;;;;;27.57;16.63;;;1.70;74.60;;;;;;5077899;28;20044;-75
2022/11/21 08:01:22;;;;;;;25.67;16.23;;;1.70;74.70;;;;;;5095265;28;20036;-75
2022/11/21 08:03:47;;;;;;;21.60;15.37;;;1.70;74.80;;;;;;5050437;28;20068;-75
2022/11/21 08:06:13;;;;;;;23.77;15.80;;;1.80;75.00;;;;;;5058237;28;20102;-75
2022/11/21 08:08:39;;;;;;;22.80;15.50;;;1.70;75.00;;;;;;5085599;28;20047;-75
2022/11/21 08:11:06;;;;;;;24.67;16.33;;;1.90;75.20;;;;;;5077805;28;20036;-75
2022/11/21 08:13:32;;;;;;;24.97;15.67;;;1.70;75.60;;;;;;5058091;28;20549;-84
2022/11/21 08:15:58;;;;;;;24.87;15.43;;;1.70;75.30;;;;;;5075138;28;20036;-84
2022/11/21 08:18:24;;;;;;;24.93;15.70;;;1.80;75.40;;;;;;5075809;28;20503;-83
2022/11/21 08:20:49;;;;;;;21.67;14.50;;;1.80;75.50;;;;;;5070271;28;20067;-83
2022/11/21 08:23:15;;;;;;;23.63;15.00;;;1.80;75.70;;;;;;5045408;28;20618;-84
2022/11/21 08:25:41;;;;;;;21.23;14.67;;;1.80;75.80;;;;;;5062347;28;20130;-84
2022/11/21 08:28:09;;;;;;;21.67;14.23;;;1.80;76.00;;;;;;5078324;28;20092;-83
2022/11/21 08:30:35;;;;;;;21.13;14.67;;;2.00;76.30;;;;;;5078855;28;20040;-85
2022/11/21 08:33:02;;;;;;;24.87;14.97;;;1.90;76.30;;;;;;5078503;28;20055;-84
2022/11/21 08:35:29;;;;;;;23.90;13.93;;;2.00;76.50;;;;;;5062371;28;20436;-83
2022/11/21 08:37:59;;;;;;;19.50;12.87;;;2.00;76.60;;;;;;5062069;28;20462;-84
2022/11/21 08:40:26;;;;;;;17.37;12.03;;;2.00;76.80;;;;;;5041536;28;20041;-84
2022/11/21 08:42:58;;;;;;;19.10;12.47;;;2.10;76.80;;;;;;5057391;28;20044;-84
2022/11/21 08:45:24;;;;;;;20.10;11.73;;;2.10;76.90;;;;;;5058330;28;20029;-84
2022/11/21 08:47:51;;;;;;;19.07;12.87;;;2.10;77.00;;;;;;5058164;28;20040;-84
2022/11/21 08:50:17;;;;;;;18.83;12.87;;;2.20;77.00;;;;;;5076426;28;20415;-83
2022/11/21 08:52:43;;;;;;;17.73;12.43;;;2.20;77.00;;;;;;5094266;28;20067;-84
2022/11/21 08:55:09;;;;;;;18.33;11.67;;;2.20;77.00;;;;;;5060733;28;20055;-84
2022/11/21 08:57:39;;;;;;;17.97;11.40;;;2.20;77.00;;;;;;5077447;28;20033;-84
2022/11/21 09:00:05;;;;;;;19.40;13.53;;;2.30;77.50;;;;;;5076850;28;20039;-83
2022/11/21 09:02:31;;;;;;;17.47;12.30;;;2.30;77.10;;;;;;5060783;28;20468;-84
2022/11/21 09:04:57;;;;;;;21.03;13.07;;;2.30;77.10;;;;;;5043535;28;20052;-76
2022/11/21 09:07:23;;;;;;;18.10;12.40;;;2.40;77.20;;;;;;5043776;28;20455;-76
2022/11/21 09:09:48;;;;;;;21.37;13.90;;;2.40;77.20;;;;;;5040238;28;20082;-76
2022/11/21 09:12:14;;;;;;;17.70;12.07;;;2.40;77.30;;;;;;5040402;28;20044;-76
2022/11/21 09:20:08;;;;;;;17.35;12.20;;;2.40;77.20;;;;;;5094074;28;20398;-76
2022/11/21 09:22:34;;;;;;;16.57;11.73;;;2.50;77.20;;;;;;5076767;28;20788;-75
2022/11/21 09:25:00;;;;;;;16.77;11.47;;;2.50;77.20;;;;;;5076709;28;20040;-76
2022/11/21 09:27:25;;;;;;;17.07;11.73;;;2.50;77.20;;;;;;5076581;28;20036;-76
2022/11/21 09:29:51;;;;;;;16.47;10.77;;;2.50;77.20;;;;;;5060119;28;20042;-76
2022/11/21 09:32:17;;;;;;;17.03;12.37;;;2.50;77.30;;;;;;5059934;28;20040;-76
2022/11/21 09:34:42;;;;;;;16.20;11.57;;;2.50;77.40;;;;;;5056345;28;20075;-75
2022/11/21 09:37:08;;;;;;;15.47;10.47;;;2.60;77.50;;;;;;5056758;28;20036;-86
2022/11/21 09:39:34;;;;;;;16.63;11.33;;;2.60;77.60;;;;;;5061660;28;20036;-86
2022/11/21 09:42:36;;;;;;;17.50;12.05;;;2.60;77.70;;;;;;5043318;28;20380;-86
2022/11/21 09:45:13;;;;;;;15.87;11.47;;;2.60;77.80;;;;;;5074974;28;20043;-76
2022/11/21 09:47:43;;;;;;;16.37;11.73;;;2.70;78.00;;;;;;5076435;28;20542;-85
2022/11/21 09:50:11;;;;;;;16.48;11.38;;;2.70;78.10;;;;;;5093273;28;20043;-86
2022/11/21 09:52:46;;;;;;;16.77;12.23;;;2.80;78.10;;;;;;5076471;28;20043;-87
2022/11/21 09:55:20;;;;;;;17.70;12.13;;;2.80;78.10;;;;;;5076000;28;20591;-77
2022/11/21 09:57:47;;;;;;;15.02;10.95;;;2.80;78.20;;;;;;5093133;28;20047;-87
2022/11/21 10:00:19;;;;;;;16.20;11.37;;;2.90;78.40;;;;;;5076261;28;20051;-76
2022/11/21 10:02:45;;;;;;;15.13;11.17;;;2.90;78.40;;;;;;5076124;28;20039;-77
2022/11/21 10:05:14;;;;;;;16.10;11.70;;;3.00;78.50;;;;;;5058973;28;20048;-81
2022/11/21 10:07:43;;;;;;;14.30;10.60;;;3.00;78.50;;;;;;5059424;28;20043;-77
2022/11/21 10:10:16;;;;;;;15.00;10.65;;;3.00;78.60;;;;;;5092635;28;20428;-77
2022/11/21 10:13:18;;;;;;;15.55;10.70;;;3.10;78.60;;;;;;5075872;28;20040;-77
2022/11/21 10:15:59;;;;;;;14.55;10.02;;;3.10;78.60;;;;;;5075893;28;20055;-77
2022/11/21 10:18:50;;;;;;;12.68;9.98;;;3.20;78.80;;;;;;5076031;28;20039;-86
2022/11/21 10:21:51;;;;;;;14.80;10.05;;;3.30;78.90;;;;;;5074849;28;20043;-86
2022/11/21 10:24:41;;;;;;;12.40;9.07;;;3.30;78.80;;;;;;5089490;28;20048;-86
2022/11/21 10:27:15;;;;;;;12.20;8.45;;;3.40;78.80;;;;;;5075967;28;20380;-86
2022/11/21 10:29:49;;;;;;;12.38;9.10;;;3.50;78.90;;;;;;5075685;28;20047;-87
2022/11/21 10:32:55;;;;;;;10.75;8.45;;;3.50;78.90;;;;;;5075609;28;20044;-86
2022/11/21 10:35:27;;;;;;;11.95;8.55;;;3.60;78.90;;;;;;5055475;28;20040;-86
2022/11/21 10:38:00;;;;;;;10.95;8.70;;;3.60;78.90;;;;;;5075615;28;20040;-86
2022/11/21 10:40:36;;;;;;;12.15;8.65;;;3.70;78.80;;;;;;5076084;28;20062;-86
2022/11/21 10:46:11;;;;;;;13.13;9.38;;;3.80;78.60;;;;;;5089024;28;20105;-86
2022/11/21 10:48:37;;;;;;;12.18;8.55;;;3.90;78.40;;;;;;5055500;28;20040;-86
2022/11/21 10:51:12;;;;;;;12.63;8.73;;;4.30;78.50;;;;;;5039303;28;20090;-86
2022/11/21 10:56:25;;;;;;;12.90;9.63;;;3.90;78.10;;;;;;5072265;28;20044;-87
2022/11/21 10:58:56;;;;;;;13.80;9.57;;;4.00;78.10;;;;;;5092083;28;20075;-87
2022/11/21 11:01:33;;;;;;;11.90;8.82;;;3.90;78.00;;;;;;5067316;28;20044;-86
2022/11/21 11:04:18;;;;;;;11.90;9.02;;;4.00;78.10;;;;;;5078502;28;20114;-85
2022/11/21 11:06:45;;;;;;;13.35;9.98;;;4.00;78.00;;;;;;5075690;28;20036;-86
2022/11/21 11:09:32;;;;;;;13.00;9.73;;;4.00;78.00;;;;;;5092360;28;20040;-87
2022/11/21 11:15:19;;;;;;;13.20;9.68;;;4.10;78.00;;;;;;5092233;28;20040;-86
2022/11/21 11:17:50;;;;;;;13.82;10.07;;;4.10;77.90;;;;;;5075540;28;20036;-88
2022/11/21 11:20:40;;;;;;;11.45;9.10;;;4.40;77.90;;;;;;5075377;28;20047;-86
2022/11/21 11:23:19;;;;;;;13.10;9.02;;;4.20;77.70;;;;;;5090188;28;20391;-87
2022/11/21 11:25:56;;;;;;;13.13;9.98;;;4.20;77.60;;;;;;5075569;28;20364;-87
2022/11/21 11:28:26;;;;;;;14.52;10.68;;;4.30;77.60;;;;;;5058712;28;20040;-87
2022/11/21 11:30:55;;;;;;;14.48;9.85;;;4.30;77.50;;;;;;5056432;28;20045;-87
2022/11/21 11:33:33;;;;;;;14.15;10.77;;;4.20;77.40;;;;;;5071808;28;20043;-87
2022/11/21 11:36:43;;;;;;;14.48;9.95;;;4.20;77.30;;;;;;5074476;28;20464;-87
2022/11/21 11:39:26;;;;;;;14.00;9.90;;;4.30;77.30;;;;;;5075957;28;20087;-87
2022/11/21 11:47:56;;;;;;;16.27;11.07;;;4.30;77.20;;;;;;5092442;28;20044;-88
2022/11/21 11:50:37;;;;;;;14.60;10.82;;;4.20;77.10;;;;;;5075167;28;20048;-87
2022/11/21 11:53:17;;;;;;;16.95;11.10;;;4.20;77.20;;;;;;5057389;28;20039;-88
2022/11/21 11:55:58;;;;;;;17.85;11.63;;;4.20;77.20;;;;;;5054929;28;20046;-89
2022/11/21 11:58:50;;;;;;;16.88;11.75;;;4.20;77.30;;;;;;5055270;28;20072;-88
2022/11/21 12:02:04;;;;;;;15.88;11.68;;;4.20;77.40;;;;;;5063032;28;20040;-85
2022/11/21 12:04:44;;;;;;;13.48;10.15;;;4.30;77.60;;;;;;5051622;28;20064;-85
2022/11/21 12:07:39;;;;;;;16.33;10.65;;;4.30;77.70;;;;;;5073422;28;20051;-85
2022/11/21 12:13:34;;;;;;;15.45;11.75;;;4.30;77.90;;;;;;5076572;28;20036;-88
2022/11/21 12:16:04;;;;;;;15.68;11.18;;;4.40;78.00;;;;;;5055208;28;20039;-88
2022/11/21 12:18:43;;;;;;;19.80;12.40;;;4.40;78.00;;;;;;5073064;28;20036;-85
2022/11/21 12:21:15;;;;;;;15.90;11.45;;;4.50;78.00;;;;;;5078451;28;20089;-86
2022/11/21 12:23:45;;;;;;;16.23;11.95;;;4.40;77.90;;;;;;5078283;28;20044;-86
2022/11/21 12:26:36;;;;;;;18.02;12.35;;;4.50;77.90;;;;;;5077891;28;20044;-86
2022/11/21 12:29:30;;;;;;;17.77;11.88;;;4.40;78.00;;;;;;5075709;28;20051;-85
2022/11/21 12:32:07;;;;;;;17.98;11.95;;;4.50;78.10;;;;;;5077910;28;20036;-87
2022/11/21 12:34:54;;;;;;;19.00;13.00;;;4.50;78.10;;;;;;5059403;28;20037;-87
2022/11/21 12:37:57;;;;;;;20.08;12.93;;;4.50;78.20;;;;;;5071570;28;20122;-89
2022/11/21 12:40:51;;;;;;;20.25;13.95;;;4.60;78.10;;;;;;5095601;28;20036;-89
2022/11/21 12:43:58;;;;;;;20.25;13.25;;;4.50;77.90;;;;;;5078804;28;20410;-89
2022/11/21 12:46:30;;;;;;;20.13;13.45;;;4.70;77.90;;;;;;5020768;28;20073;-88
2022/11/21 12:55:37;;;;;;;20.45;13.63;;;4.50;78.00;;;;;;5092725;28;20059;-88
2022/11/21 12:58:19;;;;;;;21.52;14.55;;;4.50;78.10;;;;;;5063057;28;20032;-88
2022/11/21 13:01:22;;;;;;;24.33;15.48;;;4.60;78.30;;;;;;5063865;28;20079;-88
2022/11/21 13:03:55;;;;;;;21.98;14.80;;;4.60;78.40;;;;;;5085889;28;20568;-88
2022/11/21 13:06:25;;;;;;;22.63;14.77;;;4.60;78.40;;;;;;5069674;28;20031;-86
2022/11/21 13:08:54;;;;;;;24.65;16.33;;;4.60;78.40;;;;;;5084361;28;20065;-87
2022/11/21 13:14:41;;;;;;;28.15;16.70;;;4.60;78.70;;;;;;5098937;28;20043;-86
2022/11/21 13:17:19;;;;;;;23.52;15.25;;;4.60;78.90;;;;;;5085953;28;20165;-87
2022/11/21 13:20:03;;;;;;;26.95;16.90;;;4.60;79.00;;;;;;5086942;28;20035;-87
2022/11/21 13:22:34;;;;;;;24.23;15.77;;;4.70;79.30;;;;;;5084209;28;20074;-86
2022/11/21 13:25:10;;;;;;;23.95;15.73;;;4.80;79.40;;;;;;5083882;28;20043;-88
2022/11/21 13:27:38;;;;;;;27.05;16.98;;;4.70;79.50;;;;;;5080852;28;20491;-86
2022/11/21 13:30:10;;;;;;;27.67;16.48;;;4.80;79.40;;;;;;5081846;28;20040;-86
2022/11/21 13:32:37;;;;;;;28.98;17.38;;;4.70;79.50;;;;;;5100179;28;20044;-87